Time;durP1;ratioP1;P1;durP2;ratioP2;P2;SDS_P1;SDS_P2;PMS_P1;PMS_P2;Temp;Humidity;BMP_temperature;BMP_pressure;BME280_temperature;BME280_humidity;BME280_pressure;Samples;Min_cycle;Max_cycle;Signal;HPM_P1;HPM_P2
2022/03/24 00:00:39;;;;;;;34.20;22.73;;;;;;;4.08;45.74;101680.18;3406363;81;21006;-68
2022/03/24 00:05:31;;;;;;;52.58;28.87;;;;;;;3.93;45.85;101683.63;3406041;81;20991;-68
2022/03/24 00:10:23;;;;;;;37.75;23.85;;;;;;;3.75;46.29;101685.99;3472331;81;21456;-68
2022/03/24 00:15:14;;;;;;;43.70;25.15;;;;;;;3.65;46.62;101680.20;3410767;81;21017;-68
2022/03/24 00:20:08;;;;;;;41.80;25.52;;;;;;;3.57;46.85;101679.75;3430953;81;21007;-68
2022/03/24 00:24:59;;;;;;;41.13;25.40;;;;;;;3.51;47.43;101685.81;3403906;82;20975;-69
2022/03/24 00:29:50;;;;;;;44.33;25.68;;;;;;;3.39;47.54;101676.54;3431757;81;21212;-67
2022/03/24 00:34:41;;;;;;;37.58;25.20;;;;;;;3.24;47.61;101682.04;3439424;81;20969;-68
2022/03/24 00:39:33;;;;;;;40.33;25.05;;;;;;;3.10;47.96;101677.72;3453554;79;21681;-68
2022/03/24 00:44:25;;;;;;;39.35;26.50;;;;;;;2.94;48.43;101679.72;3434490;81;21213;-68
2022/03/24 00:49:16;;;;;;;39.48;25.55;;;;;;;2.83;48.55;101686.75;3451718;81;20966;-68
2022/03/24 00:54:08;;;;;;;37.67;23.40;;;;;;;2.75;48.80;101686.64;3337212;81;20945;-68
2022/03/24 00:58:59;;;;;;;40.20;25.90;;;;;;;2.64;48.82;101684.27;3448382;81;21001;-68
2022/03/24 01:03:50;;;;;;;34.50;22.75;;;;;;;2.54;49.20;101676.78;3409274;81;20942;-67
2022/03/24 01:08:42;;;;;;;40.85;24.90;;;;;;;2.47;49.35;101682.30;3390389;81;21479;-67
2022/03/24 01:13:35;;;;;;;38.65;25.85;;;;;;;2.43;49.76;101673.52;3425416;81;21015;-68
2022/03/24 01:18:27;;;;;;;37.53;24.23;;;;;;;2.31;49.86;101678.22;3357061;81;20984;-68
2022/03/24 01:23:23;;;;;;;38.20;23.05;;;;;;;2.21;50.09;101677.61;3406478;81;21406;-68
2022/03/24 01:28:13;;;;;;;39.13;24.00;;;;;;;2.12;50.24;101674.45;3405135;81;21016;-68
2022/03/24 01:33:04;;;;;;;36.33;23.47;;;;;;;2.00;50.55;101669.78;3373644;81;21243;-68
2022/03/24 01:37:55;;;;;;;38.25;23.73;;;;;;;1.89;51.00;101669.94;3405478;81;21544;-68
2022/03/24 01:42:47;;;;;;;34.58;22.13;;;;;;;1.76;51.09;101667.35;3422698;81;21718;-68
2022/03/24 01:47:39;;;;;;;41.50;23.20;;;;;;;1.68;51.46;101672.34;3377134;81;21647;-68
2022/03/24 01:52:31;;;;;;;27.73;20.52;;;;;;;1.62;51.68;101666.80;3439681;81;21097;-68
2022/03/24 01:57:25;;;;;;;34.20;22.22;;;;;;;1.52;51.85;101667.46;3369495;81;21042;-68
2022/03/24 02:02:31;;;;;;;;;;;;;;;;;;;;;
2022/03/24 02:07:15;;;;;;;33.75;22.42;;;;;;;1.37;52.27;101672.80;3378932;81;20993;-67
2022/03/24 02:12:11;;;;;;;30.23;19.32;;;;;;;1.32;52.54;101670.30;3429184;81;20984;-67
2022/03/24 02:17:04;;;;;;;33.70;20.00;;;;;;;1.23;52.54;101678.23;3388613;81;20956;-67
2022/03/24 02:22:13;;;;;;;30.52;21.55;;;;;;;1.19;52.92;101671.53;3388002;81;21544;-67
2022/03/24 02:27:04;;;;;;;37.55;20.77;;;;;;;1.16;52.74;101677.70;3384154;81;20915;-67
2022/03/24 02:31:56;;;;;;;31.73;20.60;;;;;;;1.06;53.07;101674.50;3453095;81;21007;-68
2022/03/24 02:36:47;;;;;;;31.75;20.15;;;;;;;1.01;53.40;101673.69;3451439;81;20994;-67
2022/03/24 02:41:49;;;;;;;31.52;20.97;;;;;;;0.93;53.42;101680.44;3400361;81;21516;-67
2022/03/24 02:46:42;;;;;;;31.35;20.12;;;;;;;0.83;53.89;101678.39;3406116;81;20971;-67
2022/03/24 02:51:33;;;;;;;31.62;19.45;;;;;;;0.79;54.02;101684.05;3401799;81;20987;-67
2022/03/24 02:56:25;;;;;;;27.05;18.70;;;;;;;0.66;54.09;101680.63;3384955;81;20907;-67
2022/03/24 03:01:18;;;;;;;28.20;18.80;;;;;;;0.61;54.22;101690.92;3405703;81;21671;-68
2022/03/24 03:06:11;;;;;;;29.12;20.02;;;;;;;0.56;54.59;101692.25;3484241;81;21481;-67
2022/03/24 03:11:05;;;;;;;26.90;19.40;;;;;;;0.55;54.60;101691.73;3447506;81;21000;-67
2022/03/24 03:15:56;;;;;;;29.82;19.82;;;;;;;0.47;54.81;101695.42;3405577;81;21491;-67
2022/03/24 03:20:50;;;;;;;35.00;21.82;;;;;;;0.44;55.13;101694.80;3372378;81;21467;-67
2022/03/24 03:25:41;;;;;;;30.30;19.50;;;;;;;0.41;55.29;101698.80;3423786;81;20976;-68
2022/03/24 03:30:34;;;;;;;26.70;18.23;;;;;;;0.36;55.39;101701.91;3390714;81;21554;-67
2022/03/24 03:35:26;;;;;;;30.08;20.50;;;;;;;0.30;55.37;101701.45;3422755;81;21598;-68
2022/03/24 03:40:17;;;;;;;31.60;21.27;;;;;;;0.26;55.54;101711.36;3391215;81;20964;-67
2022/03/24 03:55:10;;;;;;;30.90;20.12;;;;;;;0.03;55.77;101705.40;3096125;86;21050;-68
2022/03/24 04:05:15;;;;;;;33.13;20.37;;;;;;;-0.03;56.38;101710.95;3108632;91;21085;-68
2022/03/24 04:10:11;;;;;;;29.18;18.92;;;;;;;-0.10;56.38;101718.05;3079166;91;21039;-68
2022/03/24 04:15:02;;;;;;;30.65;20.12;;;;;;;-0.12;56.53;101720.48;3056131;91;21027;-68
2022/03/24 04:19:53;;;;;;;31.60;20.37;;;;;;;-0.20;56.48;101718.63;3096845;91;21540;-68
2022/03/24 04:24:45;;;;;;;37.93;19.75;;;;;;;-0.25;57.02;101720.30;3016668;93;21008;-68
2022/03/24 04:29:36;;;;;;;32.88;20.10;;;;;;;-0.36;56.72;101718.59;3234732;84;21084;-67
2022/03/24 04:34:27;;;;;;;30.57;20.43;;;;;;;-0.36;57.17;101724.98;3339221;84;20971;-68
2022/03/24 04:39:18;;;;;;;33.45;19.65;;;;;;;-0.33;57.36;101726.52;3301914;83;21050;-68
2022/03/24 04:44:13;;;;;;;34.05;21.75;;;;;;;-0.36;57.25;101728.42;3318417;82;20943;-68
2022/03/24 04:49:04;;;;;;;31.65;20.75;;;;;;;-0.33;57.80;101730.34;3341523;83;21811;-68
2022/03/24 04:53:58;;;;;;;32.10;21.10;;;;;;;-0.30;57.57;101730.59;3385900;83;20978;-68
2022/03/24 04:58:48;;;;;;;35.20;21.65;;;;;;;-0.28;57.55;101722.65;3373401;83;20958;-68
2022/03/24 05:03:46;;;;;;;36.70;21.12;;;;;;;-0.26;57.74;101723.66;3406596;83;20947;-68
2022/03/24 05:08:33;;;;;;;34.55;20.57;;;;;;;-0.20;57.79;101730.50;3372020;82;22128;-68
2022/03/24 05:13:24;;;;;;;35.43;21.15;;;;;;;-0.14;57.70;101723.31;3406495;83;22142;-68
2022/03/24 05:18:15;;;;;;;36.25;21.87;;;;;;;-0.11;58.08;101726.08;3340491;83;21505;-68
2022/03/24 05:23:08;;;;;;;32.05;21.23;;;;;;;-0.06;58.13;101726.05;3396378;82;21005;-68
2022/03/24 05:27:59;;;;;;;38.70;23.95;;;;;;;0.01;58.21;101732.92;3396964;83;21667;-68
2022/03/24 05:32:50;;;;;;;34.92;21.68;;;;;;;0.06;58.27;101732.89;3350142;83;21526;-68
2022/03/24 05:37:41;;;;;;;38.15;22.70;;;;;;;0.12;58.32;101731.66;3392597;83;21622;-68
2022/03/24 05:42:32;;;;;;;37.28;23.45;;;;;;;0.19;58.31;101733.02;3337531;82;20986;-67
2022/03/24 05:47:24;;;;;;;37.55;24.07;;;;;;;0.29;58.42;101741.89;3373901;83;21543;-67
2022/03/24 05:52:15;;;;;;;33.95;22.22;;;;;;;0.41;58.48;101747.41;3395074;83;20967;-67
2022/03/24 05:57:06;;;;;;;38.30;23.60;;;;;;;0.56;58.50;101742.16;3353196;83;20947;-67
2022/03/24 06:01:57;;;;;;;38.40;25.52;;;;;;;0.64;58.50;101743.59;3364526;83;21109;-67
2022/03/24 06:06:53;;;;;;;39.18;24.12;;;;;;;0.74;58.78;101748.62;3353216;83;21281;-67
2022/03/24 06:11:42;;;;;;;39.65;24.43;;;;;;;0.94;58.90;101746.62;3405600;83;21522;-67
2022/03/24 06:16:35;;;;;;;39.80;24.82;;;;;;;1.12;58.94;101749.20;3321206;83;20975;-67
2022/03/24 06:21:26;;;;;;;45.92;27.48;;;;;;;1.42;58.87;101749.61;3344395;84;21501;-67
2022/03/24 06:26:20;;;;;;;45.28;28.70;;;;;;;1.71;58.67;101737.94;3288075;83;21049;-67
2022/03/24 06:31:12;;;;;;;35.98;25.40;;;;;;;2.15;58.82;101747.78;3318760;83;21007;-67
2022/03/24 06:36:04;;;;;;;38.25;25.45;;;;;;;3.80;57.29;101742.47;3357029;84;20991;-67
2022/03/24 06:40:56;;;;;;;33.65;24.47;;;;;;;3.66;56.91;101740.73;3291492;84;22145;-67
2022/03/24 06:45:47;;;;;;;37.20;24.18;;;;;;;3.61;56.62;101743.42;3300257;84;21444;-68
2022/03/24 06:50:38;;;;;;;34.83;21.93;;;;;;;3.62;56.60;101742.64;3335974;83;21043;-68
2022/03/24 06:55:30;;;;;;;33.05;22.10;;;;;;;3.67;56.31;101746.39;3313844;83;20989;-68
2022/03/24 07:00:21;;;;;;;31.68;20.92;;;;;;;3.92;56.26;101751.75;3266324;85;21008;-67
2022/03/24 07:05:14;;;;;;;33.90;20.72;;;;;;;4.56;55.34;101745.25;3312587;85;21556;-68
2022/03/24 07:10:07;;;;;;;30.00;23.25;;;;;;;5.45;54.25;101747.15;3256252;85;20964;-67
2022/03/24 07:14:58;;;;;;;30.50;21.27;;;;;;;5.46;53.96;101748.94;3257104;85;21879;-67
2022/03/24 07:19:49;;;;;;;25.37;18.42;;;;;;;5.30;54.10;101750.67;3265777;85;21400;-68
2022/03/24 07:24:41;;;;;;;24.43;17.27;;;;;;;5.24;53.95;101754.22;3253351;85;20989;-67
2022/03/24 07:29:32;;;;;;;21.82;17.95;;;;;;;5.51;53.61;101752.66;3260962;85;21013;-70
2022/03/24 07:34:24;;;;;;;18.40;15.48;;;;;;;8.73;50.43;101745.54;3246638;86;20959;-68
2022/03/24 07:39:15;;;;;;;18.17;16.25;;;;;;;13.54;45.84;101729.22;3248115;86;21164;-69
2022/03/24 07:44:07;;;;;;;16.40;14.85;;;;;;;18.06;40.55;101719.62;3268678;86;21516;-68
2022/03/24 07:48:58;;;;;;;16.40;14.07;;;;;;;20.58;37.48;101716.64;3276811;86;20972;-69
2022/03/24 07:53:57;;;;;;;17.50;15.78;;;;;;;20.24;36.37;101720.00;3238986;86;21570;-69
2022/03/24 07:58:48;;;;;;;16.52;14.73;;;;;;;21.90;33.92;101713.00;3275811;83;21000;-69
2022/03/24 08:03:39;;;;;;;14.33;12.93;;;;;;;23.50;31.52;101716.88;3309562;83;21018;-69
2022/03/24 08:08:31;;;;;;;16.20;12.35;;;;;;;23.27;31.01;101705.41;3322758;84;20962;-68
2022/03/24 08:13:24;;;;;;;14.05;12.47;;;;;;;20.98;31.21;101714.09;3296587;84;21539;-68
2022/03/24 08:18:17;;;;;;;17.65;14.80;;;;;;;19.88;30.91;101719.36;3361123;83;20998;-69
2022/03/24 08:23:09;;;;;;;14.45;13.18;;;;;;;21.26;29.75;101703.64;3367057;82;21028;-68
2022/03/24 08:28:02;;;;;;;14.50;12.85;;;;;;;22.67;28.50;101703.85;3346902;82;21536;-68
2022/03/24 08:32:53;;;;;;;15.00;11.53;;;;;;;22.40;28.30;101707.39;3366954;83;21429;-69
2022/03/24 08:37:44;;;;;;;15.25;10.50;;;;;;;22.20;27.58;101715.64;3377841;83;21254;-69
2022/03/24 08:42:37;;;;;;;12.68;11.35;;;;;;;22.12;27.72;101707.38;3341796;84;20987;-68
2022/03/24 08:47:28;;;;;;;12.98;11.73;;;;;;;23.35;25.98;101699.47;3360908;83;21062;-66
2022/03/24 08:52:21;;;;;;;11.37;10.37;;;;;;;22.39;26.65;101703.02;3377075;83;20926;-66
2022/03/24 08:57:13;;;;;;;11.78;9.90;;;;;;;20.21;26.63;101706.81;3349104;83;20990;-65
2022/03/24 09:02:05;;;;;;;13.43;10.60;;;;;;;20.77;26.37;101695.39;3342832;84;21055;-66
2022/03/24 09:06:56;;;;;;;16.40;9.88;;;;;;;20.88;26.88;101697.02;3346828;82;20974;-66
2022/03/24 09:11:47;;;;;;;11.65;10.35;;;;;;;19.47;27.47;101700.17;3370399;82;21437;-65
2022/03/24 09:16:39;;;;;;;11.40;10.05;;;;;;;19.92;27.36;101696.02;3330510;83;21606;-67
2022/03/24 09:21:30;;;;;;;14.15;11.55;;;;;;;20.19;27.25;101701.54;3287117;83;21528;-66
2022/03/24 09:26:21;;;;;;;11.90;10.48;;;;;;;19.52;27.29;101700.16;3326219;84;20965;-66
2022/03/24 09:31:13;;;;;;;11.93;10.08;;;;;;;19.61;27.14;101693.52;3317143;83;20950;-65
2022/03/24 09:36:05;;;;;;;13.40;11.30;;;;;;;21.06;26.28;101685.81;3339194;84;21007;-66
2022/03/24 09:40:59;;;;;;;11.33;9.60;;;;;;;20.63;26.33;101696.83;3361084;82;21511;-67
2022/03/24 09:45:51;;;;;;;12.15;10.88;;;;;;;23.62;24.17;101689.64;3378207;83;20974;-66
2022/03/24 09:50:47;;;;;;;11.78;9.33;;;;;;;23.53;24.20;101682.28;3369020;83;20928;-67
2022/03/24 09:55:38;;;;;;;10.65;9.45;;;;;;;23.24;23.80;101681.59;3340647;83;20954;-65
2022/03/24 10:00:31;;;;;;;9.38;8.58;;;;;;;23.77;23.18;101686.19;3410522;83;21009;-66
2022/03/24 10:05:22;;;;;;;9.68;8.73;;;;;;;24.40;22.33;101688.28;3360397;82;21208;-66
2022/03/24 10:10:26;;;;;;;12.93;9.60;;;;;;;26.19;21.59;101682.25;3380254;82;20947;-66
2022/03/24 10:15:18;;;;;;;9.40;8.58;;;;;;;27.77;20.64;101674.30;3332867;83;21036;-66
2022/03/24 10:20:16;;;;;;;8.93;7.22;;;;;;;28.99;20.12;101654.50;3343877;83;38806;-67
2022/03/24 10:25:25;;;;;;;10.85;8.18;;;;;;;29.46;18.19;101664.82;3351929;83;20954;-66
2022/03/24 10:30:16;;;;;;;7.60;7.00;;;;;;;29.44;18.19;101653.77;3325290;82;21337;-66
2022/03/24 10:35:13;;;;;;;7.08;6.37;;;;;;;29.64;18.13;101649.67;3350462;83;21551;-66
2022/03/24 10:40:10;;;;;;;7.17;6.30;;;;;;;30.12;17.99;101650.48;3395160;83;21214;-67
2022/03/24 10:45:07;;;;;;;9.43;6.33;;;;;;;30.28;17.82;101654.15;3339762;83;21677;-66
2022/03/24 10:50:20;;;;;;;7.75;6.58;;;;;;;30.18;17.64;101648.84;3348697;83;20955;-67
2022/03/24 10:55:16;;;;;;;7.08;6.25;;;;;;;30.14;17.04;101649.48;3409257;83;22051;-67
2022/03/24 11:00:11;;;;;;;7.33;6.17;;;;;;;29.68;17.41;101642.35;3367641;83;20995;-66
2022/03/24 11:05:12;;;;;;;;;;;;;;;29.58;17.29;101635.25;3333003;83;21117;-67
2022/03/24 11:09:57;;;;;;;8.03;6.05;;;;;;;29.69;17.29;101627.13;3332951;83;20123;-67
2022/03/24 11:14:53;;;;;;;11.65;7.40;;;;;;;29.54;17.16;101616.22;3268395;84;21404;-67
2022/03/24 11:20:03;;;;;;;9.18;6.60;;;;;;;29.03;17.11;101618.61;3234230;86;22208;-69
2022/03/24 11:24:54;;;;;;;8.20;7.40;;;;;;;29.03;17.33;101604.36;3312882;84;21004;-67
2022/03/24 11:29:46;;;;;;;12.00;7.78;;;;;;;28.87;17.26;101593.02;3288877;84;20980;-67
2022/03/24 11:34:37;;;;;;;9.93;7.20;;;;;;;28.43;17.78;101598.52;3255429;84;21035;-69
2022/03/24 11:39:29;;;;;;;8.30;7.10;;;;;;;28.06;17.59;101602.81;3284054;84;21009;-68
2022/03/24 11:44:31;;;;;;;6.92;6.35;;;;;;;27.58;17.88;101599.87;3270007;84;21053;-67
2022/03/24 11:49:25;;;;;;;9.50;7.17;;;;;;;27.17;18.20;101599.67;3281235;85;20966;-67
2022/03/24 11:54:32;;;;;;;10.25;7.03;;;;;;;26.79;18.57;101581.97;3267853;85;21514;-68
2022/03/24 11:59:24;;;;;;;7.83;7.00;;;;;;;25.71;19.15;101576.34;3259004;84;21028;-67
2022/03/24 12:04:16;;;;;;;7.28;6.08;;;;;;;24.08;19.88;101580.56;3260078;85;21016;-68
2022/03/24 12:09:13;;;;;;;8.45;6.67;;;;;;;22.42;20.35;101577.09;3262732;85;21201;-67
2022/03/24 12:14:19;;;;;;;7.12;6.45;;;;;;;21.29;21.43;101571.37;3297672;84;21033;-69
2022/03/24 12:19:49;;;;;;;8.63;6.42;;;;;;;20.56;22.51;101559.46;3310919;84;20997;-68
2022/03/24 12:24:41;;;;;;;7.80;6.90;;;;;;;20.24;23.23;101553.66;3282020;84;20970;-68
2022/03/24 12:29:32;;;;;;;7.55;6.47;;;;;;;19.86;23.27;101550.47;3262891;84;20977;-67
2022/03/24 12:34:31;;;;;;;12.90;6.62;;;;;;;19.74;24.30;101551.44;3240138;84;21633;-68
2022/03/24 12:39:37;;;;;;;8.65;5.70;;;;;;;19.76;24.25;101547.05;3245914;84;21003;-67
2022/03/24 12:44:56;;;;;;;6.93;6.23;;;;;;;19.48;23.93;101551.61;3246858;84;21526;-66
2022/03/24 12:49:47;;;;;;;9.50;6.37;;;;;;;19.58;24.41;101544.49;3289715;85;21126;-66
2022/03/24 12:54:48;;;;;;;6.12;5.53;;;;;;;19.51;24.23;101544.11;3292804;84;20960;-67
2022/03/24 12:59:41;;;;;;;8.53;6.70;;;;;;;19.03;24.36;101538.69;3271620;84;21010;-70
2022/03/24 13:04:32;;;;;;;11.12;5.90;;;;;;;18.90;24.71;101529.52;3248409;84;20979;-69
2022/03/24 13:09:24;;;;;;;6.97;5.53;;;;;;;18.85;25.01;101528.22;3289535;85;21065;-68
2022/03/24 13:14:19;;;;;;;8.25;6.50;;;;;;;18.75;25.04;101522.09;3310454;85;21566;-70
2022/03/24 13:19:09;;;;;;;6.85;5.70;;;;;;;18.71;25.58;101514.19;3283484;85;21000;-70
2022/03/24 13:24:00;;;;;;;7.85;6.12;;;;;;;18.61;25.67;101516.87;3303083;84;22117;-69
2022/03/24 13:28:55;;;;;;;7.73;6.63;;;;;;;18.58;25.73;101506.37;3301821;85;21074;-69
2022/03/24 13:33:53;;;;;;;8.95;7.15;;;;;;;18.51;25.48;101502.00;3285507;85;20997;-69
2022/03/24 13:38:44;;;;;;;9.18;5.60;;;;;;;18.27;25.61;101502.48;3282712;85;21067;-69
2022/03/24 13:43:35;;;;;;;8.95;6.33;;;;;;;18.27;25.99;101491.95;3268467;84;21054;-70
2022/03/24 13:48:27;;;;;;;9.75;5.95;;;;;;;18.18;26.50;101493.30;3276020;85;20990;-68
2022/03/24 13:53:28;;;;;;;9.33;6.55;;;;;;;18.17;26.58;101482.35;3245000;85;20939;-69
2022/03/24 13:58:19;;;;;;;7.00;6.30;;;;;;;18.14;26.56;101481.03;3252031;84;20959;-69
2022/03/24 14:03:18;;;;;;;8.38;5.90;;;;;;;17.96;26.97;101483.71;3286520;85;21611;-69
2022/03/24 14:08:09;;;;;;;10.15;5.72;;;;;;;17.93;26.86;101484.58;3275474;85;21053;-68
2022/03/24 14:13:00;;;;;;;10.20;7.00;;;;;;;17.91;27.23;101471.41;3263683;85;21164;-68
2022/03/24 14:18:22;;;;;;;7.22;6.40;;;;;;;17.67;26.74;101483.23;3237462;85;21483;-69
2022/03/24 14:23:34;;;;;;;7.97;5.95;;;;;;;17.50;27.30;101472.73;3284716;84;21647;-70
2022/03/24 14:28:42;;;;;;;6.60;5.83;;;;;;;17.49;27.37;101474.48;3244384;86;21541;-70
2022/03/24 14:33:49;;;;;;;9.28;6.20;;;;;;;17.36;27.59;101466.14;3270817;86;21568;-70
2022/03/24 14:39:08;;;;;;;8.93;7.25;;;;;;;17.33;27.73;101470.06;3242625;85;21534;-70
2022/03/24 14:43:59;;;;;;;8.45;6.47;;;;;;;17.14;27.79;101459.98;3319794;84;20982;-70
2022/03/24 14:48:51;;;;;;;10.82;7.25;;;;;;;17.11;28.24;101460.84;3297526;86;20943;-70
2022/03/24 14:53:42;;;;;;;8.98;7.87;;;;;;;17.05;28.32;101463.47;3290546;86;21610;-70
2022/03/24 14:58:34;;;;;;;9.83;7.58;;;;;;;16.85;28.66;101461.25;3287919;84;20977;-69
2022/03/24 15:03:25;;;;;;;11.00;7.90;;;;;;;16.77;28.64;101458.09;3244637;84;20998;-70
2022/03/24 15:08:16;;;;;;;10.78;8.45;;;;;;;16.51;28.84;101452.77;3231930;84;20977;-71
2022/03/24 15:13:08;;;;;;;11.30;8.35;;;;;;;16.34;29.06;101446.12;3300649;85;21021;-71
2022/03/24 15:17:59;;;;;;;9.58;7.70;;;;;;;16.29;29.46;101454.84;3274758;84;21014;-71
2022/03/24 15:22:51;;;;;;;8.03;6.95;;;;;;;16.15;29.55;101444.27;3302110;84;22011;-71
2022/03/24 15:27:43;;;;;;;17.98;11.10;;;;;;;16.10;29.76;101447.33;3268326;84;21114;-70
2022/03/24 15:32:35;;;;;;;10.35;8.25;;;;;;;15.87;29.75;101447.17;3254316;84;20990;-70
2022/03/24 15:37:26;;;;;;;12.85;8.48;;;;;;;15.76;30.15;101440.11;3247397;85;22469;-71
2022/03/24 15:42:19;;;;;;;8.45;7.53;;;;;;;15.62;30.57;101442.58;3242325;84;21017;-70
2022/03/24 15:47:10;;;;;;;12.37;7.58;;;;;;;15.45;30.62;101440.25;3280867;85;20993;-69
2022/03/24 15:52:01;;;;;;;10.40;8.27;;;;;;;15.19;31.10;101436.98;3295036;84;21018;-72
2022/03/24 15:56:53;;;;;;;15.00;9.20;;;;;;;14.84;31.17;101444.47;3288664;85;22193;-71
2022/03/24 16:01:45;;;;;;;14.18;9.20;;;;;;;14.53;31.66;101451.06;3286116;84;20942;-71
2022/03/24 16:06:37;;;;;;;9.90;8.13;;;;;;;14.23;31.99;101452.41;3240760;84;21051;-71
2022/03/24 16:11:28;;;;;;;9.15;8.05;;;;;;;13.98;32.40;101455.98;3286011;85;21017;-69
2022/03/24 16:16:19;;;;;;;13.43;8.70;;;;;;;13.71;32.76;101450.78;3287028;84;21166;-73
2022/03/24 16:21:10;;;;;;;12.28;8.08;;;;;;;13.49;33.15;101448.70;3235584;84;21007;-70
2022/03/24 16:26:04;;;;;;;9.93;7.90;;;;;;;13.31;33.63;101447.95;3257468;84;21031;-70
2022/03/24 16:30:55;;;;;;;10.08;8.38;;;;;;;13.11;33.80;101450.16;3252842;84;21231;-70
2022/03/24 16:35:46;;;;;;;9.90;7.70;;;;;;;12.88;34.25;101451.93;3293615;84;21017;-70
2022/03/24 16:40:38;;;;;;;12.63;9.10;;;;;;;12.68;34.56;101459.77;3273737;85;21153;-70
2022/03/24 16:45:29;;;;;;;10.72;8.15;;;;;;;12.45;34.97;101458.89;3272008;85;20946;-70
2022/03/24 16:50:22;;;;;;;12.55;8.70;;;;;;;12.26;35.29;101461.95;3244066;85;20988;-70
2022/03/24 16:55:14;;;;;;;13.45;9.68;;;;;;;12.07;35.55;101464.56;3262261;85;21011;-68
2022/03/24 17:00:07;;;;;;;16.12;9.93;;;;;;;11.90;36.12;101462.84;3220111;86;20974;-68
2022/03/24 17:04:58;;;;;;;17.23;10.70;;;;;;;11.65;36.54;101468.77;3200439;86;21527;-68
2022/03/24 17:09:50;;;;;;;15.30;9.00;;;;;;;11.36;36.95;101475.42;3232247;86;20983;-68
2022/03/24 17:14:42;;;;;;;14.18;8.38;;;;;;;11.08;37.50;101482.05;3241120;86;21034;-70
2022/03/24 17:19:34;;;;;;;13.85;8.28;;;;;;;10.83;38.17;101483.53;3161987;86;21086;-71
2022/03/24 17:24:25;;;;;;;34.48;9.30;;;;;;;10.58;38.61;101481.08;3191608;86;21593;-70
2022/03/24 17:29:16;;;;;;;38.80;8.80;;;;;;;10.33;39.08;101483.38;3268896;86;20981;-70
2022/03/24 17:34:07;;;;;;;29.42;8.48;;;;;;;10.07;39.40;101488.20;3223221;86;22240;-69
2022/03/24 17:38:58;;;;;;;19.23;6.95;;;;;;;9.82;39.99;101490.44;3202359;87;21000;-69
2022/03/24 17:43:49;;;;;;;16.30;6.72;;;;;;;9.56;40.42;101495.19;3197070;86;22178;-69
2022/03/24 17:48:41;;;;;;;11.83;7.08;;;;;;;9.37;40.73;101498.86;3203319;87;21198;-69
2022/03/24 17:53:32;;;;;;;15.38;7.22;;;;;;;9.15;41.23;101494.22;3201713;86;21466;-68
2022/03/24 17:58:23;;;;;;;9.88;6.83;;;;;;;8.94;41.71;101494.33;3234044;85;21584;-69
2022/03/24 18:03:14;;;;;;;16.90;8.70;;;;;;;8.73;41.96;101496.62;3234799;85;21472;-68
2022/03/24 18:08:08;;;;;;;9.75;8.00;;;;;;;8.58;42.44;101495.66;3225556;86;21040;-69
2022/03/24 18:12:59;;;;;;;12.13;8.68;;;;;;;8.43;42.86;101496.78;3247670;86;21705;-69
2022/03/24 18:17:50;;;;;;;10.48;6.87;;;;;;;8.33;43.28;101495.07;3221018;85;20996;-69
2022/03/24 18:22:43;;;;;;;21.27;8.63;;;;;;;8.22;43.52;101496.38;3241834;85;20997;-68
2022/03/24 18:27:34;;;;;;;39.20;11.48;;;;;;;8.11;43.70;101524.87;3255533;86;21060;-68
2022/03/24 18:32:28;;;;;;;11.90;8.43;;;;;;;7.96;43.89;101500.12;3239531;86;20994;-68
2022/03/24 18:37:20;;;;;;;18.73;9.58;;;;;;;7.97;44.25;101509.64;3248906;86;21028;-68
2022/03/24 18:42:11;;;;;;;49.98;14.18;;;;;;;7.97;44.41;101518.70;3249611;86;21642;-69
2022/03/24 18:47:06;;;;;;;24.72;10.55;;;;;;;7.97;44.55;101513.95;3247191;86;20963;-69
2022/03/24 18:51:56;;;;;;;22.10;10.53;;;;;;;7.92;44.69;101512.48;3230567;85;21009;-69
2022/03/24 18:56:47;;;;;;;16.35;8.95;;;;;;;7.71;44.87;101511.58;3272086;85;21068;-68
2022/03/24 19:01:39;;;;;;;11.55;8.50;;;;;;;7.57;45.20;101529.14;3287171;84;20983;-68
2022/03/24 19:06:31;;;;;;;28.12;15.70;;;;;;;7.39;45.47;101530.54;3279834;85;21001;-69
2022/03/24 19:11:22;;;;;;;86.85;22.07;;;;;;;7.22;45.79;101522.91;3272070;85;20978;-68
2022/03/24 19:16:17;;;;;;;115.88;30.68;;;;;;;7.09;45.96;101532.26;3311541;85;22125;-68
2022/03/24 19:21:08;;;;;;;96.35;26.48;;;;;;;6.87;46.26;101526.13;3300782;85;21311;-68
2022/03/24 19:26:00;;;;;;;96.80;23.75;;;;;;;6.71;46.75;101534.02;3300912;84;21060;-68
2022/03/24 19:30:52;;;;;;;58.80;16.97;;;;;;;6.45;47.28;101525.92;3287319;84;21043;-68
2022/03/24 19:35:44;;;;;;;49.23;17.80;;;;;;;6.45;47.28;101525.92;3270804;85;22068;-68
2022/03/24 19:40:36;;;;;;;42.30;16.82;;;;;;;6.36;47.68;101535.83;3265424;84;21772;-69
2022/03/24 19:45:28;;;;;;;28.57;14.58;;;;;;;6.29;47.88;101538.94;3293084;85;21673;-68
2022/03/24 19:50:20;;;;;;;28.57;14.85;;;;;;;6.14;48.12;101538.23;3271530;84;21816;-69
2022/03/24 19:55:11;;;;;;;28.05;12.00;;;;;;;6.00;48.50;101538.42;3268196;84;22152;-68
2022/03/24 20:00:06;;;;;;;17.07;11.30;;;;;;;5.88;48.61;101537.79;3247212;84;21001;-69
2022/03/24 20:04:58;;;;;;;21.97;12.82;;;;;;;5.72;48.82;101538.34;3202657;85;20939;-68
2022/03/24 20:09:50;;;;;;;27.37;14.13;;;;;;;5.63;49.25;101543.02;3191777;85;21572;-69
2022/03/24 20:14:41;;;;;;;32.45;15.40;;;;;;;5.57;49.45;101540.14;3236432;86;20990;-68
2022/03/24 20:19:32;;;;;;;28.87;12.93;;;;;;;5.49;49.69;101538.48;3204947;85;21029;-68
2022/03/24 20:24:23;;;;;;;21.97;13.25;;;;;;;5.39;49.83;101537.52;3240250;85;21719;-68
2022/03/24 20:29:14;;;;;;;21.02;12.68;;;;;;;5.29;49.92;101541.33;3258151;85;21031;-68
2022/03/24 20:34:07;;;;;;;19.95;12.18;;;;;;;5.24;50.23;101538.91;3234511;85;21043;-68
2022/03/24 20:38:58;;;;;;;24.60;14.35;;;;;;;5.19;50.41;101540.74;3195789;85;21094;-68
2022/03/24 20:43:50;;;;;;;25.50;13.38;;;;;;;5.12;50.69;101543.02;3244313;85;21132;-68
2022/03/24 20:48:43;;;;;;;25.85;13.65;;;;;;;5.07;50.85;101538.02;3210889;85;21223;-68
2022/03/24 20:53:34;;;;;;;24.50;13.98;;;;;;;5.00;50.91;101539.80;3208446;86;20984;-68
2022/03/24 20:58:26;;;;;;;21.97;14.85;;;;;;;4.92;51.03;101543.27;3215411;86;21602;-68
2022/03/24 21:03:17;;;;;;;21.20;16.00;;;;;;;4.85;51.09;101546.73;3299907;85;21054;-68
2022/03/24 21:08:08;;;;;;;25.05;16.20;;;;;;;4.78;51.41;101545.09;3265745;85;21532;-68
2022/03/24 21:13:03;;;;;;;27.30;16.37;;;;;;;4.84;51.84;101549.69;3266922;85;21516;-68
2022/03/24 21:17:54;;;;;;;26.68;16.77;;;;;;;4.86;51.95;101553.23;3302813;84;21012;-68
2022/03/24 21:22:45;;;;;;;28.00;17.05;;;;;;;4.78;51.94;101548.08;3281531;85;20986;-68
2022/03/24 21:27:36;;;;;;;23.12;16.87;;;;;;;4.65;52.16;101544.34;3270431;85;21005;-68
2022/03/24 21:32:28;;;;;;;29.85;18.30;;;;;;;4.55;52.18;101551.98;3290310;85;21209;-68
2022/03/24 21:37:19;;;;;;;30.08;19.82;;;;;;;4.45;52.45;101551.86;3238602;85;21014;-68
2022/03/24 21:42:10;;;;;;;36.63;22.17;;;;;;;4.49;52.86;101553.83;3250983;85;21450;-68
2022/03/24 21:47:04;;;;;;;37.58;21.65;;;;;;;4.46;52.92;101557.92;3249964;85;21009;-69
2022/03/24 21:51:55;;;;;;;32.60;19.67;;;;;;;4.39;53.04;101551.54;3243806;85;21523;-68
2022/03/24 21:56:46;;;;;;;32.40;22.15;;;;;;;4.34;52.85;101551.27;3250890;85;21122;-68
2022/03/24 22:01:37;;;;;;;38.35;22.80;;;;;;;4.26;52.96;101552.97;3245971;85;21016;-68
2022/03/24 22:06:29;;;;;;;37.25;19.77;;;;;;;4.18;53.28;101553.39;3226073;85;20982;-69
2022/03/24 22:11:20;;;;;;;31.62;19.65;;;;;;;4.13;53.51;101545.84;3292492;85;21014;-68
2022/03/24 22:16:11;;;;;;;34.10;21.50;;;;;;;4.07;53.78;101544.19;3221797;85;21028;-68
2022/03/24 22:21:03;;;;;;;30.10;18.98;;;;;;;3.99;53.96;101536.45;3266901;85;21774;-68
2022/03/24 22:25:55;;;;;;;36.40;20.72;;;;;;;3.89;53.59;101536.72;3277252;85;21078;-68
2022/03/24 22:30:47;;;;;;;34.98;20.92;;;;;;;3.72;53.68;101541.79;3270099;85;21049;-68
2022/03/24 22:35:38;;;;;;;36.55;19.67;;;;;;;3.62;54.21;101549.35;3277545;85;21530;-68
2022/03/24 22:40:30;;;;;;;39.03;22.58;;;;;;;3.62;54.67;101550.64;3282257;84;20980;-68
2022/03/24 22:45:21;;;;;;;28.25;18.57;;;;;;;3.64;54.67;101548.16;3253997;84;21162;-68